createdAt,value
2018-12-13T00:00:06.207Z,-0.54
2018-12-13T00:02:34.483Z,-0.59
2018-12-13T00:05:02.741Z,-0.56
2018-12-13T00:07:30.998Z,-0.57
2018-12-13T00:09:59.297Z,-0.62
2018-12-13T00:12:27.668Z,-0.62
2018-12-13T00:14:55.961Z,-0.51
2018-12-13T00:17:24.248Z,-0.51
2018-12-13T00:19:52.547Z,-0.43
2018-12-13T00:22:21.185Z,-0.47
2018-12-13T00:24:49.440Z,-0.56
2018-12-13T00:27:17.727Z,-0.50
2018-12-13T00:29:46.015Z,-0.48
2018-12-13T00:32:14.270Z,-0.44
2018-12-13T00:37:20.781Z,-0.50
2018-12-13T00:39:49.057Z,-0.31
2018-12-13T00:42:17.323Z,-0.31
2018-12-13T00:44:45.599Z,-0.21
2018-12-13T00:47:13.861Z,-0.04
2018-12-13T00:49:42.144Z,-0.07
2018-12-13T00:52:10.435Z,0.08
2018-12-13T00:54:38.800Z,0.10
2018-12-13T00:57:07.068Z,-0.08
2018-12-13T00:59:35.345Z,-0.06
2018-12-13T01:02:03.667Z,-0.33
2018-12-13T01:04:32.069Z,-0.49
2018-12-13T01:07:00.449Z,-0.56
2018-12-13T01:09:28.739Z,-0.54
2018-12-13T01:11:57.032Z,-0.30
2018-12-13T01:17:03.480Z,-0.60
2018-12-13T01:19:31.799Z,-0.53
2018-12-13T01:22:00.092Z,-0.59
2018-12-13T01:24:28.392Z,-0.23
2018-12-13T01:26:56.746Z,-0.30
2018-12-13T01:29:25.073Z,-0.45
2018-12-13T01:31:53.331Z,-0.45
2018-12-13T01:36:59.801Z,-0.16
2018-12-13T01:39:28.071Z,-0.02
2018-12-13T01:41:56.381Z,-0.20
2018-12-13T01:44:24.639Z,-0.01
2018-12-13T01:46:52.915Z,-0.08
2018-12-13T01:49:21.176Z,-0.22
2018-12-13T01:51:49.443Z,-0.17
2018-12-13T01:54:17.972Z,-0.20
2018-12-13T01:56:46.228Z,-0.11
2018-12-13T01:59:14.515Z,-0.07
2018-12-13T02:01:42.852Z,-0.08
2018-12-13T02:04:11.548Z,0.03
2018-12-13T02:06:39.896Z,-0.02
2018-12-13T02:09:08.487Z,-0.08
2018-12-13T02:11:36.746Z,-0.35
2018-12-13T02:14:05.029Z,-0.19
2018-12-13T02:16:33.295Z,-0.59
2018-12-13T02:19:01.563Z,-0.44
2018-12-13T02:21:29.935Z,-0.31
2018-12-13T02:23:58.199Z,-0.31
2018-12-13T02:26:26.575Z,-0.22
2018-12-13T02:28:54.871Z,-0.19
2018-12-13T02:31:23.132Z,-0.28
2018-12-13T02:33:51.464Z,-0.36
2018-12-13T02:36:19.748Z,-0.56
2018-12-13T02:38:48.060Z,-0.58
2018-12-13T02:41:16.332Z,-0.31
2018-12-13T02:43:44.615Z,-0.38
2018-12-13T02:46:12.869Z,-0.42
2018-12-13T02:48:41.143Z,-0.53
2018-12-13T02:51:09.408Z,-0.45
2018-12-13T02:53:37.781Z,-0.48
2018-12-13T02:56:06.141Z,-0.47
2018-12-13T03:01:12.767Z,-0.26
2018-12-13T03:03:41.065Z,-0.36
2018-12-13T03:06:09.325Z,-0.43
2018-12-13T03:08:37.634Z,-0.47
2018-12-13T03:11:05.960Z,-0.73
2018-12-13T03:13:34.223Z,-0.77
2018-12-13T03:16:02.502Z,-0.27
2018-12-13T03:18:31.029Z,-0.33
2018-12-13T03:20:59.289Z,-0.24
2018-12-13T03:26:06.009Z,-0.52
2018-12-13T03:28:34.326Z,-0.72
2018-12-13T03:31:02.586Z,-0.74
2018-12-13T03:33:30.861Z,-0.47
2018-12-13T03:35:59.135Z,-0.74
2018-12-13T03:38:27.494Z,-0.67
2018-12-13T03:40:55.830Z,-0.58
2018-12-13T03:43:24.250Z,-0.58
2018-12-13T03:45:52.537Z,-0.93
2018-12-13T03:48:20.843Z,-0.59
2018-12-13T03:50:49.401Z,-0.68
2018-12-13T03:53:17.659Z,-0.80
2018-12-13T03:55:45.995Z,-0.87
2018-12-13T03:58:14.251Z,-0.99
2018-12-13T04:00:42.585Z,-1.04
2018-12-13T04:03:10.934Z,-0.92
2018-12-13T04:05:40.459Z,-0.72
2018-12-13T04:08:08.738Z,-0.76
2018-12-13T04:10:37.015Z,-0.65
2018-12-13T04:13:05.267Z,-0.79
2018-12-13T04:15:33.603Z,-0.87
2018-12-13T04:18:01.916Z,-1.07
2018-12-13T04:20:30.214Z,-0.82
2018-12-13T04:22:58.493Z,-1.07
2018-12-13T04:25:26.768Z,-1.12
2018-12-13T04:27:55.064Z,-1.08
2018-12-13T04:30:23.341Z,-0.97
2018-12-13T04:32:51.595Z,-0.88
2018-12-13T04:35:19.871Z,-1.10
2018-12-13T04:40:26.293Z,-0.98
2018-12-13T04:42:54.547Z,-1.17
2018-12-13T04:45:22.824Z,-1.14
2018-12-13T04:47:51.125Z,-1.18
2018-12-13T04:50:19.407Z,-1.21
2018-12-13T04:52:47.665Z,-1.23
2018-12-13T04:55:15.976Z,-1.31
2018-12-13T04:57:44.247Z,-1.33
2018-12-13T05:00:13.023Z,-1.34
2018-12-13T05:02:41.325Z,-1.40
2018-12-13T05:05:09.640Z,-1.41
2018-12-13T05:07:41.750Z,-1.44
2018-12-13T05:10:08.834Z,-1.43
2018-12-13T05:12:37.115Z,-1.43
2018-12-13T05:15:05.514Z,-1.43
2018-12-13T05:17:33.809Z,-1.40
2018-12-13T05:20:02.088Z,-1.39
2018-12-13T05:22:30.368Z,-1.19
2018-12-13T05:24:58.693Z,-1.29
2018-12-13T05:27:27.001Z,-1.28
2018-12-13T05:29:55.260Z,-1.16
2018-12-13T05:35:04.048Z,-1.24
2018-12-13T05:37:32.331Z,-1.32
2018-12-13T05:40:00.607Z,-1.29
2018-12-13T05:42:28.869Z,-1.35
2018-12-13T05:44:57.145Z,-1.36
2018-12-13T05:47:25.413Z,-1.35
2018-12-13T05:49:53.732Z,-1.00
2018-12-13T05:52:22.001Z,-1.32
2018-12-13T05:54:50.268Z,-1.03
2018-12-13T05:57:18.561Z,-1.13
2018-12-13T05:59:46.873Z,-1.15
2018-12-13T06:02:15.146Z,-1.34
2018-12-13T06:04:43.448Z,-1.41
2018-12-13T06:07:11.986Z,-1.46
2018-12-13T06:09:40.250Z,-1.40
2018-12-13T06:12:08.514Z,-1.38
2018-12-13T06:14:36.795Z,-1.31
2018-12-13T06:17:05.088Z,-1.15
2018-12-13T06:19:33.353Z,-1.38
2018-12-13T06:22:01.623Z,-1.34
2018-12-13T06:24:29.945Z,-1.36
2018-12-13T06:26:58.217Z,-1.21
2018-12-13T06:29:26.519Z,-1.38
2018-12-13T06:31:54.857Z,-1.33
2018-12-13T06:34:23.146Z,-1.32
2018-12-13T06:36:51.422Z,-1.35
2018-12-13T06:39:19.693Z,-1.36
2018-12-13T06:41:48.005Z,-1.34
2018-12-13T06:44:16.264Z,-1.38
2018-12-13T06:49:22.788Z,-1.38
2018-12-13T06:51:51.044Z,-1.32
2018-12-13T06:54:19.319Z,-1.30
2018-12-13T06:56:47.583Z,-1.09
2018-12-13T06:59:15.853Z,-1.08
2018-12-13T07:01:44.425Z,-1.13
2018-12-13T07:04:12.875Z,-1.08
2018-12-13T07:06:41.132Z,-1.36
2018-12-13T07:09:09.403Z,-1.20
2018-12-13T07:11:37.680Z,-1.14
2018-12-13T07:14:06.480Z,-1.40
2018-12-13T07:16:34.901Z,-1.36
2018-12-13T07:19:03.176Z,-1.36
2018-12-13T07:21:31.443Z,-1.40
2018-12-13T07:23:59.786Z,-1.40
2018-12-13T07:26:28.040Z,-1.29
2018-12-13T07:28:56.325Z,-1.38
2018-12-13T07:31:24.629Z,-1.37
2018-12-13T07:33:52.891Z,-1.28
2018-12-13T07:36:21.172Z,-1.39
2018-12-13T07:38:49.472Z,-1.31
2018-12-13T07:41:17.752Z,-1.28
2018-12-13T07:43:46.012Z,-1.23
2018-12-13T07:46:14.281Z,-1.08
2018-12-13T07:51:25.757Z,-1.23
2018-12-13T07:53:54.073Z,-0.78
2018-12-13T07:56:22.392Z,-0.77
2018-12-13T07:58:50.677Z,-1.09
2018-12-13T08:01:18.967Z,-1.07
2018-12-13T08:03:47.268Z,-0.75
2018-12-13T08:06:15.544Z,-0.98
2018-12-13T08:08:43.808Z,-0.76
2018-12-13T08:11:12.108Z,-0.80
2018-12-13T08:13:40.408Z,-0.77
2018-12-13T08:16:08.698Z,-0.81
2018-12-13T08:18:36.959Z,-0.77
2018-12-13T08:21:05.282Z,-0.55
2018-12-13T08:23:33.562Z,-1.02
2018-12-13T08:26:02.025Z,-1.05
2018-12-13T08:28:30.324Z,-1.05
2018-12-13T08:30:58.593Z,-0.99
2018-12-13T08:33:26.851Z,-1.04
2018-12-13T08:35:55.125Z,-1.01
2018-12-13T08:38:27.210Z,-1.07
2018-12-13T08:40:53.672Z,-1.05
2018-12-13T08:43:22.041Z,-1.12
2018-12-13T08:45:50.348Z,-0.69
2018-12-13T08:48:19.160Z,-0.96
2018-12-13T08:50:48.503Z,-1.12
2018-12-13T08:53:16.811Z,-0.75
2018-12-13T08:55:45.082Z,-1.01
2018-12-13T08:58:13.320Z,-0.70
2018-12-13T09:00:41.696Z,-0.89
2018-12-13T09:03:09.988Z,-0.82
2018-12-13T09:05:38.282Z,-0.37
2018-12-13T09:08:06.557Z,-0.43
2018-12-13T09:10:34.838Z,-0.37
2018-12-13T09:13:03.180Z,-0.75
2018-12-13T09:15:31.472Z,-0.68
2018-12-13T09:17:59.760Z,-0.23
2018-12-13T09:20:28.043Z,-0.32
2018-12-13T09:22:56.326Z,0.20
2018-12-13T09:25:24.617Z,0.18
2018-12-13T09:27:52.868Z,-0.12
2018-12-13T09:30:21.202Z,0.37
2018-12-13T09:35:27.703Z,0.53
2018-12-13T09:37:56.044Z,1.17
2018-12-13T09:40:24.292Z,0.76
2018-12-13T09:42:52.588Z,1.06
2018-12-13T09:45:20.831Z,0.39
2018-12-13T09:47:49.140Z,-0.13
2018-12-13T09:50:17.423Z,0.29
2018-12-13T09:52:45.725Z,0.27
2018-12-13T09:55:14.012Z,0.68
2018-12-13T09:57:42.333Z,0.43
2018-12-13T10:00:11.013Z,0.60
2018-12-13T10:02:39.258Z,0.22
2018-12-13T10:05:07.619Z,0.32
2018-12-13T10:07:35.857Z,0.64
2018-12-13T10:10:04.791Z,0.80
2018-12-13T10:12:33.096Z,0.74
2018-12-13T10:15:01.355Z,0.58
2018-12-13T10:17:29.623Z,0.51
2018-12-13T10:22:36.076Z,0.93
2018-12-13T10:25:05.217Z,0.95
2018-12-13T10:27:33.492Z,0.13
2018-12-13T10:30:02.677Z,-0.04
2018-12-13T10:32:31.013Z,0.78
2018-12-13T10:34:59.283Z,0.36
2018-12-13T10:37:27.660Z,0.62
2018-12-13T10:39:56.006Z,0.76
2018-12-13T10:42:24.289Z,0.95
2018-12-13T10:44:52.697Z,0.70
2018-12-13T10:47:21.099Z,1.04
2018-12-13T10:49:49.368Z,1.10
2018-12-13T10:52:17.873Z,1.22
2018-12-13T10:54:46.115Z,0.93
2018-12-13T10:57:14.397Z,0.74
2018-12-13T10:59:42.757Z,0.75
2018-12-13T11:05:17.147Z,0.31
2018-12-13T11:07:45.412Z,0.71
2018-12-13T11:10:13.757Z,0.97
2018-12-13T11:12:42.059Z,0.95
2018-12-13T11:15:10.320Z,0.69
2018-12-13T11:17:38.646Z,0.43
2018-12-13T11:20:07.036Z,0.28
2018-12-13T11:22:35.292Z,1.06
2018-12-13T11:25:04.084Z,0.86
2018-12-13T11:30:56.992Z,0.95
2018-12-13T11:33:25.259Z,0.72
2018-12-13T11:35:53.508Z,1.18
2018-12-13T11:38:21.775Z,1.07
2018-12-13T11:40:50.117Z,1.13
2018-12-13T11:43:18.371Z,1.38
2018-12-13T11:45:46.737Z,0.75
2018-12-13T11:48:15.015Z,0.46
2018-12-13T11:50:43.280Z,1.37
2018-12-13T11:53:11.559Z,2.21
2018-12-13T11:55:39.992Z,1.64
2018-12-13T11:58:08.283Z,1.95
2018-12-13T12:00:36.566Z,2.83
2018-12-13T12:03:04.932Z,1.16
2018-12-13T12:05:33.187Z,1.52
2018-12-13T12:08:01.613Z,2.17
2018-12-13T12:10:29.924Z,2.21
2018-12-13T12:12:58.201Z,3.08
2018-12-13T12:15:26.615Z,3.13
2018-12-13T12:17:54.951Z,2.50
2018-12-13T12:20:23.217Z,1.22
2018-12-13T12:22:51.462Z,1.37
2018-12-13T12:25:19.759Z,1.17
2018-12-13T12:27:48.031Z,1.08
2018-12-13T12:30:16.316Z,1.37
2018-12-13T12:32:44.667Z,0.88
2018-12-13T12:35:13.022Z,1.13
2018-12-13T12:37:41.325Z,1.49
2018-12-13T12:40:09.658Z,2.33
2018-12-13T12:42:37.903Z,1.83
2018-12-13T12:45:06.418Z,1.97
2018-12-13T12:47:34.857Z,1.94
2018-12-13T12:50:03.618Z,1.00
2018-12-13T12:52:31.880Z,0.25
2018-12-13T12:55:00.166Z,0.68
2018-12-13T12:57:28.414Z,0.24
2018-12-13T12:59:56.679Z,0.43
2018-12-13T13:02:25.252Z,0.10
2018-12-13T13:04:53.539Z,0.10
2018-12-13T13:07:21.791Z,0.43
2018-12-13T13:09:50.089Z,0.52
2018-12-13T13:12:18.369Z,0.86
2018-12-13T13:14:46.612Z,0.93
2018-12-13T13:17:14.927Z,1.16
2018-12-13T13:19:43.221Z,0.47
2018-12-13T13:22:11.472Z,0.11
2018-12-13T13:24:39.755Z,0.71
2018-12-13T13:27:08.026Z,0.26
2018-12-13T13:29:36.340Z,0.71
2018-12-13T13:32:04.731Z,0.16
2018-12-13T13:34:33.040Z,0.14
2018-12-13T13:37:01.380Z,-0.01
2018-12-13T13:39:31.674Z,0.26
2018-12-13T13:42:00.195Z,-0.13
2018-12-13T13:47:08.578Z,-0.16
2018-12-13T13:49:37.010Z,-0.21
2018-12-13T13:52:05.377Z,-0.28
2018-12-13T13:54:33.703Z,-0.20
2018-12-13T13:57:02.005Z,-0.26
2018-12-13T13:59:30.255Z,-0.38
2018-12-13T14:01:58.560Z,-0.47
2018-12-13T14:04:26.843Z,-0.49
2018-12-13T14:06:55.261Z,-0.51
2018-12-13T14:09:23.677Z,-0.52
2018-12-13T14:11:51.999Z,-0.63
2018-12-13T14:14:20.283Z,-0.56
2018-12-13T14:16:48.568Z,-0.80
2018-12-13T14:19:16.907Z,-0.78
2018-12-13T14:21:45.224Z,-0.75
2018-12-13T14:24:13.516Z,-0.84
2018-12-13T14:26:41.788Z,-0.75
2018-12-13T14:29:10.039Z,-0.79
2018-12-13T14:31:38.303Z,-0.75
2018-12-13T14:34:06.657Z,-0.85
2018-12-13T14:36:34.918Z,-0.88
2018-12-13T14:41:45.337Z,-1.03
2018-12-13T14:44:13.636Z,-0.83
2018-12-13T14:46:41.973Z,-0.86
2018-12-13T14:49:10.267Z,-0.59
2018-12-13T14:51:38.602Z,-1.05
2018-12-13T14:54:06.904Z,-1.12
2018-12-13T14:56:35.210Z,-1.21
2018-12-13T14:59:03.594Z,-1.03
2018-12-13T15:01:31.910Z,-1.15
2018-12-13T15:04:00.189Z,-0.87
2018-12-13T15:06:28.574Z,-1.08
2018-12-13T15:08:56.856Z,-1.15
2018-12-13T15:11:25.153Z,-1.21
2018-12-13T15:13:53.405Z,-1.25
2018-12-13T15:16:21.948Z,-1.28
2018-12-13T15:18:50.256Z,-1.34
2018-12-13T15:21:18.513Z,-1.40
2018-12-13T15:23:46.819Z,-1.38
2018-12-13T15:26:15.119Z,-1.45
2018-12-13T15:28:43.372Z,-1.39
2018-12-13T15:31:11.659Z,-1.41
2018-12-13T15:33:39.942Z,-1.47
2018-12-13T15:36:08.215Z,-1.45
2018-12-13T15:38:36.551Z,-1.46
2018-12-13T15:41:04.808Z,-1.38
2018-12-13T15:43:33.099Z,-1.42
2018-12-13T15:46:01.368Z,-1.49
2018-12-13T15:48:29.679Z,-1.46
2018-12-13T15:50:57.971Z,-1.50
2018-12-13T15:53:26.215Z,-1.52
2018-12-13T15:55:54.469Z,-1.44
2018-12-13T15:58:22.791Z,-1.60
2018-12-13T16:00:51.112Z,-1.61
2018-12-13T16:03:19.443Z,-1.59
2018-12-13T16:05:47.756Z,-1.63
2018-12-13T16:08:16.016Z,-1.58
2018-12-13T16:10:44.388Z,-1.48
2018-12-13T16:15:51.133Z,-1.18
2018-12-13T16:18:19.472Z,-1.46
2018-12-13T16:20:47.722Z,-1.60
2018-12-13T16:25:54.436Z,-1.60
2018-12-13T16:28:22.726Z,-1.65
2018-12-13T16:30:51.089Z,-1.63
2018-12-13T16:33:19.368Z,-1.43
2018-12-13T16:35:47.687Z,-1.60
2018-12-13T16:38:15.941Z,-1.69
2018-12-13T16:40:44.250Z,-1.64
2018-12-13T16:43:12.581Z,-1.64
2018-12-13T16:45:40.831Z,-1.77
2018-12-13T16:48:09.157Z,-1.74
2018-12-13T16:50:37.472Z,-1.78
2018-12-13T16:53:05.756Z,-1.54
2018-12-13T16:55:34.108Z,-1.75
2018-12-13T16:58:02.371Z,-1.76
2018-12-13T17:00:30.637Z,-1.90
2018-12-13T17:02:59.044Z,-1.84
2018-12-13T17:05:27.615Z,-1.88
2018-12-13T17:07:55.867Z,-1.78
2018-12-13T17:10:24.188Z,-1.84
2018-12-13T17:12:52.533Z,-1.83
2018-12-13T17:15:20.825Z,-1.86
2018-12-13T17:17:49.208Z,-1.89
2018-12-13T17:20:17.573Z,-1.88
2018-12-13T17:22:45.872Z,-1.91
2018-12-13T17:25:14.124Z,-1.89
2018-12-13T17:30:20.651Z,-1.88
2018-12-13T17:32:48.948Z,-1.79
2018-12-13T17:35:17.207Z,-1.84
2018-12-13T17:37:45.558Z,-1.95
2018-12-13T17:40:13.968Z,-1.87
2018-12-13T17:42:42.276Z,-1.84
2018-12-13T17:45:10.592Z,-1.83
2018-12-13T17:47:38.914Z,-1.83
2018-12-13T17:50:07.332Z,-1.90
2018-12-13T17:52:35.580Z,-1.92
2018-12-13T17:55:04.839Z,-1.86
2018-12-13T17:57:34.440Z,-1.78
2018-12-13T18:00:02.891Z,-1.76
2018-12-13T18:02:31.180Z,-1.92
2018-12-13T18:04:59.489Z,-1.94
2018-12-13T18:07:27.743Z,-1.85
2018-12-13T18:09:56.048Z,-1.85
2018-12-13T18:12:25.327Z,-1.87
2018-12-13T18:14:53.653Z,-1.86
2018-12-13T18:17:21.915Z,-1.60
2018-12-13T18:19:50.213Z,-1.63
2018-12-13T18:22:18.527Z,-1.74
2018-12-13T18:24:46.865Z,-1.80
2018-12-13T18:27:15.307Z,-1.40
2018-12-13T18:29:43.672Z,-1.68
2018-12-13T18:32:11.977Z,-1.42
2018-12-13T18:34:40.244Z,-1.42
2018-12-13T18:37:08.566Z,-1.68
2018-12-13T18:39:36.911Z,-1.67
2018-12-13T18:42:05.163Z,-1.66
2018-12-13T18:44:33.551Z,-1.89
2018-12-13T18:47:02.178Z,-1.72
2018-12-13T18:49:30.437Z,-1.66
2018-12-13T18:51:58.744Z,-1.69
2018-12-13T18:54:27.039Z,-1.73
2018-12-13T18:56:55.334Z,-1.85
2018-12-13T18:59:23.627Z,-1.52
2018-12-13T19:01:51.888Z,-1.43
2018-12-13T19:04:20.152Z,-1.47
2018-12-13T19:06:48.483Z,-1.55
2018-12-13T19:09:16.791Z,-1.50
2018-12-13T19:11:45.110Z,-1.67
2018-12-13T19:14:13.373Z,-1.46
2018-12-13T19:16:41.704Z,-1.57
2018-12-13T19:19:09.991Z,-1.58
2018-12-13T19:21:38.255Z,-1.67
2018-12-13T19:24:06.559Z,-1.65
2018-12-13T19:26:34.926Z,-1.80
2018-12-13T19:29:03.230Z,-1.90
2018-12-13T19:31:31.483Z,-1.70
2018-12-13T19:33:59.783Z,-1.44
2018-12-13T19:36:28.074Z,-1.23
2018-12-13T19:41:34.593Z,-1.66
2018-12-13T19:44:02.925Z,-1.71
2018-12-13T19:46:31.226Z,-1.97
2018-12-13T19:48:59.536Z,-1.94
2018-12-13T19:51:27.819Z,-1.92
2018-12-13T19:53:56.177Z,-1.74
2018-12-13T19:56:24.436Z,-1.53
2018-12-13T19:58:52.766Z,-1.78
2018-12-13T20:01:21.058Z,-1.71
2018-12-13T20:03:49.352Z,-1.78
2018-12-13T20:06:17.647Z,-1.90
2018-12-13T20:08:45.944Z,-1.56
2018-12-13T20:11:14.204Z,-1.64
2018-12-13T20:13:42.563Z,-1.80
2018-12-13T20:16:10.823Z,-1.91
2018-12-13T20:18:39.085Z,-1.74
2018-12-13T20:21:07.420Z,-1.74
2018-12-13T20:23:35.702Z,-1.94
2018-12-13T20:26:04.088Z,-1.78
2018-12-13T20:28:32.415Z,-1.87
2018-12-13T20:31:00.672Z,-2.02
2018-12-13T20:33:28.968Z,-1.90
2018-12-13T20:35:57.228Z,-2.03
2018-12-13T20:38:25.587Z,-2.04
2018-12-13T20:40:53.845Z,-2.08
2018-12-13T20:43:22.148Z,-2.12
2018-12-13T20:45:50.413Z,-1.86
2018-12-13T20:48:18.720Z,-1.76
2018-12-13T20:50:47.001Z,-1.94
2018-12-13T20:55:54.377Z,-2.11
2018-12-13T20:58:22.642Z,-2.16
2018-12-13T21:00:51.685Z,-2.06
2018-12-13T21:03:20.017Z,-1.94
2018-12-13T21:05:48.332Z,-1.95
2018-12-13T21:08:16.685Z,-1.74
2018-12-13T21:10:44.988Z,-1.92
2018-12-13T21:13:13.291Z,-2.02
2018-12-13T21:15:41.576Z,-1.72
2018-12-13T21:18:09.832Z,-1.78
2018-12-13T21:20:38.141Z,-1.80
2018-12-13T21:23:06.485Z,-2.06
2018-12-13T21:25:34.784Z,-2.09
2018-12-13T21:28:03.080Z,-2.08
2018-12-13T21:30:31.371Z,-1.86
2018-12-13T21:33:00.593Z,-1.74
2018-12-13T21:35:29.160Z,-1.98
2018-12-13T21:37:57.559Z,-2.10
2018-12-13T21:40:25.847Z,-2.10
2018-12-13T21:42:54.152Z,-2.02
2018-12-13T21:45:22.451Z,-2.06
2018-12-13T21:47:50.740Z,-1.87
2018-12-13T21:50:19.025Z,-1.86
2018-12-13T21:52:47.276Z,-1.75
2018-12-13T21:55:15.626Z,-1.96
2018-12-13T21:57:43.904Z,-1.80
2018-12-13T22:00:12.166Z,-1.90
2018-12-13T22:02:40.452Z,-1.86
2018-12-13T22:05:08.984Z,-1.83
2018-12-13T22:07:37.252Z,-1.92
2018-12-13T22:10:06.997Z,-2.02
2018-12-13T22:12:35.267Z,-2.10
2018-12-13T22:15:03.795Z,-2.03
2018-12-13T22:17:32.047Z,-2.10
2018-12-13T22:20:00.323Z,-2.15
2018-12-13T22:22:28.646Z,-1.87
2018-12-13T22:24:56.908Z,-1.91
2018-12-13T22:27:25.261Z,-2.04
2018-12-13T22:29:53.596Z,-2.06
2018-12-13T22:32:21.932Z,-1.86
2018-12-13T22:34:50.239Z,-1.95
2018-12-13T22:37:18.534Z,-1.96
2018-12-13T22:39:46.894Z,-2.02
2018-12-13T22:42:15.176Z,-2.13
2018-12-13T22:44:43.471Z,-2.26
2018-12-13T22:47:11.727Z,-1.93
2018-12-13T22:52:18.137Z,-1.88
2018-12-13T22:54:46.525Z,-2.16
2018-12-13T22:57:14.812Z,-1.80
2018-12-13T22:59:43.067Z,-2.10
2018-12-13T23:02:11.443Z,-1.87
2018-12-13T23:04:39.699Z,-1.91
2018-12-13T23:07:08.004Z,-1.91
2018-12-13T23:09:36.336Z,-1.86
2018-12-13T23:12:04.609Z,-1.98
2018-12-13T23:14:32.872Z,-2.07
2018-12-13T23:17:01.203Z,-2.00
2018-12-13T23:19:29.502Z,-1.99
2018-12-13T23:21:57.757Z,-2.16
2018-12-13T23:24:26.037Z,-2.37
2018-12-13T23:26:54.324Z,-2.34
2018-12-13T23:29:22.630Z,-2.08
2018-12-13T23:31:50.917Z,-2.17
2018-12-13T23:34:19.187Z,-2.10
2018-12-13T23:36:47.476Z,-2.03
2018-12-13T23:39:15.790Z,-2.04
2018-12-13T23:41:44.076Z,-2.23
2018-12-13T23:46:50.595Z,-1.88
2018-12-13T23:49:18.896Z,-1.97
2018-12-13T23:51:47.149Z,-2.13
2018-12-13T23:54:15.436Z,-2.10
2018-12-13T23:56:43.731Z,-2.23
2018-12-13T23:59:12.069Z,-2.26
